sensor_id;sensor_type;location;lat;lon;timestamp;pressure;altitude;pressure_sealevel;temperature;humidity
51530;BME280;37613;51.788;21.582;2022-10-22T00:00:59;99958.70;;;7.13;80.97
51530;BME280;37613;51.788;21.582;2022-10-22T00:05:10;99960.59;;;7.15;81.06
51530;BME280;37613;51.788;21.582;2022-10-22T00:09:13;99958.73;;;7.16;81.24
51530;BME280;37613;51.788;21.582;2022-10-22T00:13:16;99956.08;;;7.17;81.43
51530;BME280;37613;51.788;21.582;2022-10-22T00:17:18;99953.64;;;7.17;81.68
51530;BME280;37613;51.788;21.582;2022-10-22T00:21:19;99946.16;;;7.16;81.65
51530;BME280;37613;51.788;21.582;2022-10-22T00:25:21;99936.95;;;7.16;81.68
51530;BME280;37613;51.788;21.582;2022-10-22T00:29:23;99927.25;;;7.12;81.67
51530;BME280;37613;51.788;21.582;2022-10-22T00:33:27;99929.25;;;7.16;81.80
51530;BME280;37613;51.788;21.582;2022-10-22T00:37:30;99921.67;;;7.12;81.94
51530;BME280;37613;51.788;21.582;2022-10-22T00:41:32;99926.20;;;7.17;82.05
51530;BME280;37613;51.788;21.582;2022-10-22T00:45:34;99922.02;;;7.16;82.16
51530;BME280;37613;51.788;21.582;2022-10-22T00:49:36;99914.23;;;7.16;82.33
51530;BME280;37613;51.788;21.582;2022-10-22T00:53:47;99911.39;;;7.15;82.46
51530;BME280;37613;51.788;21.582;2022-10-22T00:57:51;99905.44;;;7.16;82.60
51530;BME280;37613;51.788;21.582;2022-10-22T01:01:54;99892.68;;;7.15;82.60
51530;BME280;37613;51.788;21.582;2022-10-22T01:05:58;99881.38;;;7.16;82.79
51530;BME280;37613;51.788;21.582;2022-10-22T01:19:16;99889.51;;;7.19;83.34
51530;BME280;37613;51.788;21.582;2022-10-22T01:32:48;99891.02;;;7.22;83.75
51530;BME280;37613;51.788;21.582;2022-10-22T01:36:51;99893.08;;;7.23;83.78
51530;BME280;37613;51.788;21.582;2022-10-22T01:40:55;99882.02;;;7.24;83.68
51530;BME280;37613;51.788;21.582;2022-10-22T01:44:58;99869.29;;;7.27;83.79
51530;BME280;37613;51.788;21.582;2022-10-22T02:02:23;99856.30;;;7.37;84.51
51530;BME280;37613;51.788;21.582;2022-10-22T02:06:28;99856.16;;;7.38;84.67
51530;BME280;37613;51.788;21.582;2022-10-22T02:10:32;99856.81;;;7.40;84.79
51530;BME280;37613;51.788;21.582;2022-10-22T02:14:37;99855.40;;;7.42;84.77
51530;BME280;37613;51.788;21.582;2022-10-22T02:18:41;99851.08;;;7.43;84.77
51530;BME280;37613;51.788;21.582;2022-10-22T02:22:45;99844.79;;;7.44;84.94
51530;BME280;37613;51.788;21.582;2022-10-22T02:31:28;99843.40;;;7.47;85.20
51530;BME280;37613;51.788;21.582;2022-10-22T02:35:32;99844.30;;;7.49;85.38
51530;BME280;37613;51.788;21.582;2022-10-22T02:39:35;99853.89;;;7.51;85.56
51530;BME280;37613;51.788;21.582;2022-10-22T02:43:43;99847.44;;;7.52;85.72
51530;BME280;37613;51.788;21.582;2022-10-22T02:47:46;99834.78;;;7.52;85.82
51530;BME280;37613;51.788;21.582;2022-10-22T02:51:48;99832.35;;;7.53;85.85
51530;BME280;37613;51.788;21.582;2022-10-22T02:55:50;99830.85;;;7.53;85.95
51530;BME280;37613;51.788;21.582;2022-10-22T02:59:52;99820.96;;;7.55;86.05
51530;BME280;37613;51.788;21.582;2022-10-22T03:03:53;99823.57;;;7.56;86.10
51530;BME280;37613;51.788;21.582;2022-10-22T03:07:56;99823.11;;;7.58;86.13
51530;BME280;37613;51.788;21.582;2022-10-22T03:11:57;99824.68;;;7.60;86.10
51530;BME280;37613;51.788;21.582;2022-10-22T03:15:59;99822.34;;;7.62;86.28
51530;BME280;37613;51.788;21.582;2022-10-22T03:20:01;99824.80;;;7.64;86.46
51530;BME280;37613;51.788;21.582;2022-10-22T03:24:14;99830.15;;;7.67;86.39
51530;BME280;37613;51.788;21.582;2022-10-22T03:28:17;99831.17;;;7.67;86.73
51530;BME280;37613;51.788;21.582;2022-10-22T03:32:19;99834.64;;;7.67;86.67
51530;BME280;37613;51.788;21.582;2022-10-22T03:36:21;99833.61;;;7.66;86.64
51530;BME280;37613;51.788;21.582;2022-10-22T03:40:23;99830.61;;;7.65;86.88
51530;BME280;37613;51.788;21.582;2022-10-22T03:44:26;99817.95;;;7.65;87.02
51530;BME280;37613;51.788;21.582;2022-10-22T03:48:28;99819.14;;;7.67;87.15
51530;BME280;37613;51.788;21.582;2022-10-22T03:52:35;99824.10;;;7.69;87.08
51530;BME280;37613;51.788;21.582;2022-10-22T03:56:38;99840.07;;;7.69;87.26
51530;BME280;37613;51.788;21.582;2022-10-22T04:00:40;99846.30;;;7.70;87.28
51530;BME280;37613;51.788;21.582;2022-10-22T04:04:42;99840.72;;;7.71;87.52
51530;BME280;37613;51.788;21.582;2022-10-22T04:08:44;99829.17;;;7.72;87.58
51530;BME280;37613;51.788;21.582;2022-10-22T04:12:47;99822.02;;;7.75;87.75
51530;BME280;37613;51.788;21.582;2022-10-22T04:16:49;99811.64;;;7.77;87.87
51530;BME280;37613;51.788;21.582;2022-10-22T04:20:51;99799.47;;;7.80;87.92
51530;BME280;37613;51.788;21.582;2022-10-22T04:24:54;99791.13;;;7.84;87.92
51530;BME280;37613;51.788;21.582;2022-10-22T04:28:56;99791.16;;;7.87;87.96
51530;BME280;37613;51.788;21.582;2022-10-22T04:32:58;99797.70;;;7.90;88.09
51530;BME280;37613;51.788;21.582;2022-10-22T04:37:00;99802.19;;;7.92;88.09
51530;BME280;37613;51.788;21.582;2022-10-22T04:41:19;99793.00;;;7.95;88.15
51530;BME280;37613;51.788;21.582;2022-10-22T04:45:22;99781.75;;;7.97;88.11
51530;BME280;37613;51.788;21.582;2022-10-22T04:49:24;99772.39;;;7.96;88.23
51530;BME280;37613;51.788;21.582;2022-10-22T04:53:26;99772.13;;;7.93;88.18
51530;BME280;37613;51.788;21.582;2022-10-22T04:57:29;99769.92;;;7.91;88.16
51530;BME280;37613;51.788;21.582;2022-10-22T05:01:36;99769.38;;;7.89;88.26
51530;BME280;37613;51.788;21.582;2022-10-22T05:05:39;99769.85;;;7.89;88.48
51530;BME280;37613;51.788;21.582;2022-10-22T05:09:41;99771.65;;;7.88;88.48
51530;BME280;37613;51.788;21.582;2022-10-22T05:13:43;99778.50;;;7.87;88.50
51530;BME280;37613;51.788;21.582;2022-10-22T05:17:45;99779.29;;;7.87;88.62
51530;BME280;37613;51.788;21.582;2022-10-22T05:21:47;99778.89;;;7.87;88.78
51530;BME280;37613;51.788;21.582;2022-10-22T05:25:49;99783.14;;;7.90;88.87
51530;BME280;37613;51.788;21.582;2022-10-22T05:29:51;99789.36;;;7.92;88.91
51530;BME280;37613;51.788;21.582;2022-10-22T05:33:53;99796.29;;;7.93;89.00
51530;BME280;37613;51.788;21.582;2022-10-22T05:37:55;99801.98;;;7.95;89.09
51530;BME280;37613;51.788;21.582;2022-10-22T05:41:57;99804.49;;;7.99;89.22
51530;BME280;37613;51.788;21.582;2022-10-22T05:46:04;99799.71;;;8.03;89.22
51530;BME280;37613;51.788;21.582;2022-10-22T05:50:07;99800.67;;;8.07;89.50
51530;BME280;37613;51.788;21.582;2022-10-22T05:54:15;99801.40;;;8.12;89.71
51530;BME280;37613;51.788;21.582;2022-10-22T05:58:18;99803.08;;;8.18;89.49
51530;BME280;37613;51.788;21.582;2022-10-22T06:02:20;99797.35;;;8.24;89.69
51530;BME280;37613;51.788;21.582;2022-10-22T06:06:29;99802.83;;;8.34;89.96
51530;BME280;37613;51.788;21.582;2022-10-22T06:10:32;99804.98;;;8.44;89.94
51530;BME280;37613;51.788;21.582;2022-10-22T06:14:34;99801.21;;;8.50;89.92
51530;BME280;37613;51.788;21.582;2022-10-22T06:18:36;99801.61;;;8.54;89.86
51530;BME280;37613;51.788;21.582;2022-10-22T06:22:38;99793.83;;;8.57;90.00
51530;BME280;37613;51.788;21.582;2022-10-22T06:26:40;99796.04;;;8.62;90.06
51530;BME280;37613;51.788;21.582;2022-10-22T06:30:42;99811.41;;;8.69;90.02
51530;BME280;37613;51.788;21.582;2022-10-22T06:34:44;99825.44;;;8.75;90.16
51530;BME280;37613;51.788;21.582;2022-10-22T06:38:46;99811.73;;;8.77;90.17
51530;BME280;37613;51.788;21.582;2022-10-22T06:42:48;99816.78;;;8.79;90.15
51530;BME280;37613;51.788;21.582;2022-10-22T06:46:51;99808.35;;;8.84;90.21
51530;BME280;37613;51.788;21.582;2022-10-22T06:50:53;99802.60;;;8.91;90.35
51530;BME280;37613;51.788;21.582;2022-10-22T06:54:55;99817.34;;;8.99;90.38
51530;BME280;37613;51.788;21.582;2022-10-22T06:58:58;99799.05;;;9.05;90.37
51530;BME280;37613;51.788;21.582;2022-10-22T07:03:00;99809.85;;;9.13;90.55
51530;BME280;37613;51.788;21.582;2022-10-22T07:07:02;99818.52;;;9.19;90.46
51530;BME280;37613;51.788;21.582;2022-10-22T07:15:07;99828.27;;;9.25;90.40
51530;BME280;37613;51.788;21.582;2022-10-22T07:19:13;99831.05;;;9.23;90.35
51530;BME280;37613;51.788;21.582;2022-10-22T07:23:15;99842.33;;;9.22;90.56
51530;BME280;37613;51.788;21.582;2022-10-22T07:27:17;99862.52;;;9.21;91.08
51530;BME280;37613;51.788;21.582;2022-10-22T07:31:19;99856.77;;;9.19;90.92
51530;BME280;37613;51.788;21.582;2022-10-22T07:35:21;99851.25;;;9.20;90.84
51530;BME280;37613;51.788;21.582;2022-10-22T07:39:23;99848.33;;;9.22;90.79
51530;BME280;37613;51.788;21.582;2022-10-22T07:43:26;99838.61;;;9.24;90.70
51530;BME280;37613;51.788;21.582;2022-10-22T07:47:28;99826.86;;;9.26;90.82
51530;BME280;37613;51.788;21.582;2022-10-22T07:51:30;99817.01;;;9.29;90.75
51530;BME280;37613;51.788;21.582;2022-10-22T07:55:33;99819.61;;;9.35;90.95
51530;BME280;37613;51.788;21.582;2022-10-22T07:59:35;99831.58;;;9.45;91.12
51530;BME280;37613;51.788;21.582;2022-10-22T08:03:40;99841.11;;;9.58;91.25
51530;BME280;37613;51.788;21.582;2022-10-22T08:07:42;99838.63;;;9.68;91.08
51530;BME280;37613;51.788;21.582;2022-10-22T08:11:44;99841.15;;;9.74;90.98
51530;BME280;37613;51.788;21.582;2022-10-22T08:15:46;99849.75;;;9.76;90.89
51530;BME280;37613;51.788;21.582;2022-10-22T08:19:48;99856.29;;;9.81;91.09
51530;BME280;37613;51.788;21.582;2022-10-22T08:23:53;99867.29;;;9.98;91.33
51530;BME280;37613;51.788;21.582;2022-10-22T08:27:55;99866.77;;;10.12;91.31
51530;BME280;37613;51.788;21.582;2022-10-22T08:32:00;99866.67;;;10.21;91.05
51530;BME280;37613;51.788;21.582;2022-10-22T08:36:04;99869.67;;;10.28;91.05
51530;BME280;37613;51.788;21.582;2022-10-22T08:40:06;99873.05;;;10.30;90.87
51530;BME280;37613;51.788;21.582;2022-10-22T08:44:19;99879.59;;;10.33;91.03
51530;BME280;37613;51.788;21.582;2022-10-22T08:52:48;99875.61;;;10.57;91.31
51530;BME280;37613;51.788;21.582;2022-10-22T08:57:01;99867.48;;;10.67;91.02
51530;BME280;37613;51.788;21.582;2022-10-22T09:01:21;99865.79;;;10.74;90.85
51530;BME280;37613;51.788;21.582;2022-10-22T09:09:55;99867.08;;;10.81;90.82
51530;BME280;37613;51.788;21.582;2022-10-22T09:13:59;99869.98;;;10.84;90.82
51530;BME280;37613;51.788;21.582;2022-10-22T09:26:26;99875.15;;;11.04;91.05
51530;BME280;37613;51.788;21.582;2022-10-22T09:30:34;99875.02;;;11.12;90.72
51530;BME280;37613;51.788;21.582;2022-10-22T09:34:38;99880.64;;;11.13;90.61
51530;BME280;37613;51.788;21.582;2022-10-22T09:38:46;99879.05;;;11.12;90.52
51530;BME280;37613;51.788;21.582;2022-10-22T09:42:49;99882.24;;;11.09;90.33
51530;BME280;37613;51.788;21.582;2022-10-22T09:46:51;99877.29;;;11.07;90.40
51530;BME280;37613;51.788;21.582;2022-10-22T09:55:17;99868.96;;;11.08;90.67
51530;BME280;37613;51.788;21.582;2022-10-22T09:59:26;99864.81;;;11.11;90.61
51530;BME280;37613;51.788;21.582;2022-10-22T10:03:31;99870.81;;;11.15;90.58
51530;BME280;37613;51.788;21.582;2022-10-22T10:07:36;99869.66;;;11.19;90.48
51530;BME280;37613;51.788;21.582;2022-10-22T10:11:53;99867.88;;;11.25;90.61
51530;BME280;37613;51.788;21.582;2022-10-22T10:16:05;99863.56;;;11.30;90.52
51530;BME280;37613;51.788;21.582;2022-10-22T10:20:45;99858.44;;;11.38;90.62
51530;BME280;37613;51.788;21.582;2022-10-22T10:46:54;99864.05;;;11.30;90.11
51530;BME280;37613;51.788;21.582;2022-10-22T10:55:37;99861.70;;;11.37;90.16
51530;BME280;37613;51.788;21.582;2022-10-22T11:00:09;99854.88;;;11.38;90.15
51530;BME280;37613;51.788;21.582;2022-10-22T11:04:17;99857.36;;;11.42;90.23
51530;BME280;37613;51.788;21.582;2022-10-22T11:13:20;99864.85;;;11.47;90.13
51530;BME280;37613;51.788;21.582;2022-10-22T11:17:28;99859.61;;;11.47;89.90
51530;BME280;37613;51.788;21.582;2022-10-22T11:21:42;99854.35;;;11.52;90.02
51530;BME280;37613;51.788;21.582;2022-10-22T11:25:48;99846.95;;;11.55;90.13
51530;BME280;37613;51.788;21.582;2022-10-22T11:30:00;99840.32;;;11.61;89.96
51530;BME280;37613;51.788;21.582;2022-10-22T11:38:40;99834.13;;;11.70;90.04
51530;BME280;37613;51.788;21.582;2022-10-22T11:42:57;99829.58;;;11.76;90.18
51530;BME280;37613;51.788;21.582;2022-10-22T11:47:19;99826.77;;;11.80;90.08
51530;BME280;37613;51.788;21.582;2022-10-22T11:51:32;99822.53;;;11.85;90.05
51530;BME280;37613;51.788;21.582;2022-10-22T11:59:50;99824.45;;;11.95;90.11
51530;BME280;37613;51.788;21.582;2022-10-22T12:04:16;99826.73;;;11.98;90.09
51530;BME280;37613;51.788;21.582;2022-10-22T12:08:23;99828.66;;;11.96;89.71
51530;BME280;37613;51.788;21.582;2022-10-22T12:12:25;99831.41;;;11.89;89.43
51530;BME280;37613;51.788;21.582;2022-10-22T12:16:39;99827.19;;;11.85;89.65
51530;BME280;37613;51.788;21.582;2022-10-22T12:20:41;99820.25;;;11.82;89.76
51530;BME280;37613;51.788;21.582;2022-10-22T12:24:46;99819.95;;;11.81;89.63
51530;BME280;37613;51.788;21.582;2022-10-22T12:28:50;99822.59;;;11.77;89.67
51530;BME280;37613;51.788;21.582;2022-10-22T12:32:59;99826.77;;;11.71;89.60
51530;BME280;37613;51.788;21.582;2022-10-22T12:37:03;99830.20;;;11.67;89.61
51530;BME280;37613;51.788;21.582;2022-10-22T12:41:05;99828.54;;;11.66;89.72
51530;BME280;37613;51.788;21.582;2022-10-22T12:45:08;99829.96;;;11.67;89.75
51530;BME280;37613;51.788;21.582;2022-10-22T12:49:18;99829.81;;;11.67;89.76
51530;BME280;37613;51.788;21.582;2022-10-22T12:53:28;99828.39;;;11.67;89.80
51530;BME280;37613;51.788;21.582;2022-10-22T12:57:31;99824.74;;;11.67;89.79
51530;BME280;37613;51.788;21.582;2022-10-22T13:01:37;99826.42;;;11.65;89.74
51530;BME280;37613;51.788;21.582;2022-10-22T13:05:39;99824.80;;;11.69;89.85
51530;BME280;37613;51.788;21.582;2022-10-22T13:09:44;99822.77;;;11.73;89.97
51530;BME280;37613;51.788;21.582;2022-10-22T13:13:46;99804.33;;;11.83;90.02
51530;BME280;37613;51.788;21.582;2022-10-22T13:17:48;99793.08;;;11.91;90.03
51530;BME280;37613;51.788;21.582;2022-10-22T13:21:51;99795.38;;;11.96;89.96
51530;BME280;37613;51.788;21.582;2022-10-22T13:26:15;99808.30;;;12.03;89.83
51530;BME280;37613;51.788;21.582;2022-10-22T13:30:23;99812.95;;;12.04;89.94
51530;BME280;37613;51.788;21.582;2022-10-22T13:34:26;99806.52;;;12.06;89.96
51530;BME280;37613;51.788;21.582;2022-10-22T13:38:28;99806.27;;;12.13;89.98
51530;BME280;37613;51.788;21.582;2022-10-22T13:42:30;99797.77;;;12.20;90.07
51530;BME280;37613;51.788;21.582;2022-10-22T13:46:32;99799.77;;;12.26;89.80
51530;BME280;37613;51.788;21.582;2022-10-22T13:50:41;99807.60;;;12.26;89.60
51530;BME280;37613;51.788;21.582;2022-10-22T13:54:43;99801.31;;;12.24;89.64
51530;BME280;37613;51.788;21.582;2022-10-22T13:58:46;99788.36;;;12.19;89.62
51530;BME280;37613;51.788;21.582;2022-10-22T14:02:52;99793.55;;;12.17;89.58
51530;BME280;37613;51.788;21.582;2022-10-22T14:06:55;99796.02;;;12.15;89.59
51530;BME280;37613;51.788;21.582;2022-10-22T14:10:57;99784.66;;;12.11;89.46
51530;BME280;37613;51.788;21.582;2022-10-22T14:14:59;99777.98;;;12.08;89.48
51530;BME280;37613;51.788;21.582;2022-10-22T14:19:01;99777.38;;;12.05;89.55
51530;BME280;37613;51.788;21.582;2022-10-22T14:23:13;99776.89;;;12.00;89.67
51530;BME280;37613;51.788;21.582;2022-10-22T14:27:15;99769.00;;;11.97;89.63
51530;BME280;37613;51.788;21.582;2022-10-22T14:31:17;99766.18;;;11.94;89.63
51530;BME280;37613;51.788;21.582;2022-10-22T14:35:21;99773.67;;;11.92;89.79
51530;BME280;37613;51.788;21.582;2022-10-22T14:39:23;99779.93;;;11.90;89.71
51530;BME280;37613;51.788;21.582;2022-10-22T14:43:27;99789.40;;;11.87;89.74
51530;BME280;37613;51.788;21.582;2022-10-22T14:47:29;99793.02;;;11.83;89.63
51530;BME280;37613;51.788;21.582;2022-10-22T14:51:32;99803.55;;;11.80;89.71
51530;BME280;37613;51.788;21.582;2022-10-22T14:55:34;99818.70;;;11.77;89.78
51530;BME280;37613;51.788;21.582;2022-10-22T14:59:36;99819.23;;;11.73;89.89
51530;BME280;37613;51.788;21.582;2022-10-22T15:03:38;99812.70;;;11.69;89.95
51530;BME280;37613;51.788;21.582;2022-10-22T15:07:40;99803.85;;;11.66;90.02
51530;BME280;37613;51.788;21.582;2022-10-22T15:11:42;99799.06;;;11.64;90.11
51530;BME280;37613;51.788;21.582;2022-10-22T15:15:44;99789.91;;;11.61;90.02
51530;BME280;37613;51.788;21.582;2022-10-22T15:19:46;99788.42;;;11.60;90.07
51530;BME280;37613;51.788;21.582;2022-10-22T15:23:48;99788.19;;;11.58;90.20
51530;BME280;37613;51.788;21.582;2022-10-22T15:27:50;99790.52;;;11.56;90.28
51530;BME280;37613;51.788;21.582;2022-10-22T15:31:54;99795.06;;;11.53;90.45
51530;BME280;37613;51.788;21.582;2022-10-22T15:36:11;99796.82;;;11.52;90.35
51530;BME280;37613;51.788;21.582;2022-10-22T15:40:13;99798.02;;;11.50;90.46
51530;BME280;37613;51.788;21.582;2022-10-22T15:44:20;99806.04;;;11.47;90.57
51530;BME280;37613;51.788;21.582;2022-10-22T15:48:23;99807.25;;;11.46;90.75
51530;BME280;37613;51.788;21.582;2022-10-22T15:52:25;99810.90;;;11.44;90.94
51530;BME280;37613;51.788;21.582;2022-10-22T15:56:28;99816.45;;;11.43;90.73
51530;BME280;37613;51.788;21.582;2022-10-22T16:00:30;99820.71;;;11.43;90.76
51530;BME280;37613;51.788;21.582;2022-10-22T16:04:33;99821.82;;;11.42;90.79
51530;BME280;37613;51.788;21.582;2022-10-22T16:08:35;99821.05;;;11.41;90.88
51530;BME280;37613;51.788;21.582;2022-10-22T16:12:38;99822.17;;;11.39;90.84
51530;BME280;37613;51.788;21.582;2022-10-22T16:16:44;99825.67;;;11.38;90.90
51530;BME280;37613;51.788;21.582;2022-10-22T16:20:46;99827.73;;;11.36;91.01
51530;BME280;37613;51.788;21.582;2022-10-22T16:24:48;99829.73;;;11.34;91.01
51530;BME280;37613;51.788;21.582;2022-10-22T16:28:50;99834.34;;;11.33;91.15
51530;BME280;37613;51.788;21.582;2022-10-22T16:32:52;99831.65;;;11.32;91.19
51530;BME280;37613;51.788;21.582;2022-10-22T16:36:55;99833.17;;;11.31;91.01
51530;BME280;37613;51.788;21.582;2022-10-22T16:41:17;99833.25;;;11.31;91.17
51530;BME280;37613;51.788;21.582;2022-10-22T16:45:20;99829.22;;;11.31;91.40
51530;BME280;37613;51.788;21.582;2022-10-22T16:49:22;99829.86;;;11.31;91.39
51530;BME280;37613;51.788;21.582;2022-10-22T16:53:24;99831.05;;;11.30;91.50
51530;BME280;37613;51.788;21.582;2022-10-22T16:57:27;99829.16;;;11.30;91.62
51530;BME280;37613;51.788;21.582;2022-10-22T17:01:29;99832.41;;;11.29;91.53
51530;BME280;37613;51.788;21.582;2022-10-22T17:05:35;99833.49;;;11.29;91.55
51530;BME280;37613;51.788;21.582;2022-10-22T17:09:38;99836.52;;;11.29;91.65
51530;BME280;37613;51.788;21.582;2022-10-22T17:13:40;99838.48;;;11.28;91.66
51530;BME280;37613;51.788;21.582;2022-10-22T17:17:43;99837.55;;;11.27;91.66
51530;BME280;37613;51.788;21.582;2022-10-22T17:21:53;99836.14;;;11.26;91.77
51530;BME280;37613;51.788;21.582;2022-10-22T17:26:04;99839.69;;;11.28;92.06
51530;BME280;37613;51.788;21.582;2022-10-22T17:30:13;99841.02;;;11.31;91.96
51530;BME280;37613;51.788;21.582;2022-10-22T17:34:19;99848.19;;;11.32;92.27
51530;BME280;37613;51.788;21.582;2022-10-22T17:38:21;99851.98;;;11.33;92.65
51530;BME280;37613;51.788;21.582;2022-10-22T17:42:24;99853.88;;;11.33;92.83
51530;BME280;37613;51.788;21.582;2022-10-22T17:46:27;99850.73;;;11.33;92.88
51530;BME280;37613;51.788;21.582;2022-10-22T17:50:30;99845.27;;;11.32;92.76
51530;BME280;37613;51.788;21.582;2022-10-22T17:54:33;99847.40;;;11.32;92.87
51530;BME280;37613;51.788;21.582;2022-10-22T17:58:35;99847.57;;;11.31;92.77
51530;BME280;37613;51.788;21.582;2022-10-22T18:02:37;99849.95;;;11.31;92.69
51530;BME280;37613;51.788;21.582;2022-10-22T18:06:40;99848.53;;;11.30;92.73
51530;BME280;37613;51.788;21.582;2022-10-22T18:10:42;99854.64;;;11.29;92.96
51530;BME280;37613;51.788;21.582;2022-10-22T18:14:44;99851.48;;;11.29;92.92
51530;BME280;37613;51.788;21.582;2022-10-22T18:18:49;99855.18;;;11.28;93.05
51530;BME280;37613;51.788;21.582;2022-10-22T18:22:53;99854.95;;;11.28;93.13
51530;BME280;37613;51.788;21.582;2022-10-22T18:26:55;99855.59;;;11.29;93.12
51530;BME280;37613;51.788;21.582;2022-10-22T18:31:07;99855.42;;;11.31;93.50
51530;BME280;37613;51.788;21.582;2022-10-22T18:35:10;99852.78;;;11.32;93.68
51530;BME280;37613;51.788;21.582;2022-10-22T18:39:14;99852.77;;;11.33;93.62
51530;BME280;37613;51.788;21.582;2022-10-22T18:43:16;99852.45;;;11.33;93.83
51530;BME280;37613;51.788;21.582;2022-10-22T18:47:19;99860.52;;;11.34;93.88
51530;BME280;37613;51.788;21.582;2022-10-22T18:51:23;99855.98;;;11.35;94.16
51530;BME280;37613;51.788;21.582;2022-10-22T18:55:26;99852.11;;;11.36;93.97
51530;BME280;37613;51.788;21.582;2022-10-22T18:59:28;99856.39;;;11.37;93.96
51530;BME280;37613;51.788;21.582;2022-10-22T19:03:31;99855.51;;;11.38;94.09
51530;BME280;37613;51.788;21.582;2022-10-22T19:07:33;99854.06;;;11.40;94.12
51530;BME280;37613;51.788;21.582;2022-10-22T19:11:39;99857.83;;;11.42;94.23
51530;BME280;37613;51.788;21.582;2022-10-22T19:15:42;99857.83;;;11.43;94.30
51530;BME280;37613;51.788;21.582;2022-10-22T19:19:44;99862.88;;;11.45;94.89
51530;BME280;37613;51.788;21.582;2022-10-22T19:23:47;99865.96;;;11.46;95.27
51530;BME280;37613;51.788;21.582;2022-10-22T19:27:50;99870.77;;;11.48;95.25
51530;BME280;37613;51.788;21.582;2022-10-22T19:31:52;99870.13;;;11.49;95.40
51530;BME280;37613;51.788;21.582;2022-10-22T19:35:54;99876.83;;;11.50;95.11
51530;BME280;37613;51.788;21.582;2022-10-22T19:39:56;99876.75;;;11.51;95.20
51530;BME280;37613;51.788;21.582;2022-10-22T19:43:59;99876.59;;;11.51;95.28
51530;BME280;37613;51.788;21.582;2022-10-22T19:48:01;99882.44;;;11.51;95.71
51530;BME280;37613;51.788;21.582;2022-10-22T19:52:03;99889.80;;;11.51;95.55
51530;BME280;37613;51.788;21.582;2022-10-22T19:56:07;99897.34;;;11.49;95.23
51530;BME280;37613;51.788;21.582;2022-10-22T20:00:11;99895.38;;;11.48;95.49
51530;BME280;37613;51.788;21.582;2022-10-22T20:04:15;99899.90;;;11.47;95.95
51530;BME280;37613;51.788;21.582;2022-10-22T20:08:23;99902.92;;;11.46;95.69
51530;BME280;37613;51.788;21.582;2022-10-22T20:12:25;99907.20;;;11.44;95.68
51530;BME280;37613;51.788;21.582;2022-10-22T20:16:28;99910.38;;;11.44;95.82
51530;BME280;37613;51.788;21.582;2022-10-22T20:20:30;99910.85;;;11.43;96.13
51530;BME280;37613;51.788;21.582;2022-10-22T20:24:33;99915.60;;;11.41;97.02
51530;BME280;37613;51.788;21.582;2022-10-22T20:28:36;99912.52;;;11.40;97.06
51530;BME280;37613;51.788;21.582;2022-10-22T20:32:39;99913.56;;;11.40;97.23
51530;BME280;37613;51.788;21.582;2022-10-22T20:36:41;99914.76;;;11.39;96.93
51530;BME280;37613;51.788;21.582;2022-10-22T20:40:44;99916.27;;;11.38;98.28
51530;BME280;37613;51.788;21.582;2022-10-22T20:44:46;99918.98;;;11.38;97.52
51530;BME280;37613;51.788;21.582;2022-10-22T20:48:54;99920.32;;;11.38;97.54
51530;BME280;37613;51.788;21.582;2022-10-22T20:52:57;99924.20;;;11.37;97.90
51530;BME280;37613;51.788;21.582;2022-10-22T20:57:00;99919.77;;;11.37;97.67
51530;BME280;37613;51.788;21.582;2022-10-22T21:01:03;99922.38;;;11.37;98.29
51530;BME280;37613;51.788;21.582;2022-10-22T21:05:10;99922.86;;;11.37;98.68
51530;BME280;37613;51.788;21.582;2022-10-22T21:09:13;99923.34;;;11.37;98.17
51530;BME280;37613;51.788;21.582;2022-10-22T21:13:16;99928.79;;;11.37;98.49
51530;BME280;37613;51.788;21.582;2022-10-22T21:17:22;99930.39;;;11.37;99.54
51530;BME280;37613;51.788;21.582;2022-10-22T21:21:24;99929.98;;;11.37;99.96
51530;BME280;37613;51.788;21.582;2022-10-22T21:25:26;99933.14;;;11.37;99.79
51530;BME280;37613;51.788;21.582;2022-10-22T21:29:28;99938.27;;;11.38;99.40
51530;BME280;37613;51.788;21.582;2022-10-22T21:33:30;99932.81;;;11.39;100.00
51530;BME280;37613;51.788;21.582;2022-10-22T21:37:31;99932.34;;;11.38;99.85
51530;BME280;37613;51.788;21.582;2022-10-22T21:41:36;99936.44;;;11.39;99.96
51530;BME280;37613;51.788;21.582;2022-10-22T21:45:38;99935.65;;;11.40;99.87
51530;BME280;37613;51.788;21.582;2022-10-22T21:49:40;99931.36;;;11.40;99.83
51530;BME280;37613;51.788;21.582;2022-10-22T21:53:44;99933.18;;;11.41;99.81
51530;BME280;37613;51.788;21.582;2022-10-22T21:57:46;99927.73;;;11.39;99.75
51530;BME280;37613;51.788;21.582;2022-10-22T22:01:48;99931.80;;;11.43;99.69
51530;BME280;37613;51.788;21.582;2022-10-22T22:06:14;99919.75;;;11.39;99.71
51530;BME280;37613;51.788;21.582;2022-10-22T22:10:16;99919.04;;;11.40;99.99
51530;BME280;37613;51.788;21.582;2022-10-22T22:14:18;99923.42;;;11.46;100.00
51530;BME280;37613;51.788;21.582;2022-10-22T22:18:20;99927.14;;;11.46;100.00
51530;BME280;37613;51.788;21.582;2022-10-22T22:22:22;99933.70;;;11.47;100.00
51530;BME280;37613;51.788;21.582;2022-10-22T22:26:27;99938.68;;;11.47;100.00
51530;BME280;37613;51.788;21.582;2022-10-22T22:30:29;99947.20;;;11.49;100.00
51530;BME280;37613;51.788;21.582;2022-10-22T22:34:31;99950.38;;;11.49;100.00
51530;BME280;37613;51.788;21.582;2022-10-22T22:38:33;99954.89;;;11.49;100.00
51530;BME280;37613;51.788;21.582;2022-10-22T22:42:35;99961.29;;;11.50;100.00
51530;BME280;37613;51.788;21.582;2022-10-22T22:46:37;99965.54;;;11.51;100.00
51530;BME280;37613;51.788;21.582;2022-10-22T22:50:39;99962.77;;;11.54;100.00
51530;BME280;37613;51.788;21.582;2022-10-22T22:54:41;99966.23;;;11.55;100.00
51530;BME280;37613;51.788;21.582;2022-10-22T22:58:43;99968.59;;;11.57;100.00
51530;BME280;37613;51.788;21.582;2022-10-22T23:02:45;99970.15;;;11.59;100.00